createdAt,value
2019-02-19T00:01:30.250Z,5.03
2019-02-19T00:03:59.873Z,5.15
2019-02-19T00:06:29.575Z,5.09
2019-02-19T00:08:59.198Z,5.02
2019-02-19T00:11:28.829Z,4.96
2019-02-19T00:13:58.448Z,4.91
2019-02-19T00:16:28.086Z,4.91
2019-02-19T00:18:57.698Z,4.94
2019-02-19T00:21:27.367Z,4.98
2019-02-19T00:23:56.986Z,4.95
2019-02-19T00:26:26.646Z,4.96
2019-02-19T00:28:56.249Z,5.13
2019-02-19T00:31:25.878Z,5.15
2019-02-19T00:33:55.863Z,5.15
2019-02-19T00:36:25.517Z,5.11
2019-02-19T00:38:55.161Z,5.03
2019-02-19T00:41:24.768Z,5.05
2019-02-19T00:43:54.406Z,5.04
2019-02-19T00:46:24.019Z,5.00
2019-02-19T00:48:53.653Z,4.95
2019-02-19T00:51:23.263Z,4.95
2019-02-19T00:53:52.902Z,4.95
2019-02-19T00:56:22.503Z,4.96
2019-02-19T00:58:52.145Z,4.95
2019-02-19T01:01:21.766Z,4.99
2019-02-19T01:03:51.535Z,5.11
2019-02-19T01:06:21.223Z,5.22
2019-02-19T01:08:50.873Z,5.38
2019-02-19T01:11:22.195Z,5.44
2019-02-19T01:13:52.302Z,5.48
2019-02-19T01:16:21.919Z,5.57
2019-02-19T01:18:51.562Z,5.65
2019-02-19T01:21:22.766Z,5.59
2019-02-19T01:23:52.409Z,5.55
2019-02-19T01:26:22.010Z,5.44
2019-02-19T01:28:51.720Z,5.34
2019-02-19T01:31:22.858Z,5.30
2019-02-19T01:33:52.543Z,5.25
2019-02-19T01:36:22.195Z,5.33
2019-02-19T01:38:52.811Z,5.27
2019-02-19T01:41:22.439Z,5.39
2019-02-19T01:43:52.065Z,5.56
2019-02-19T01:46:21.702Z,5.57
2019-02-19T01:48:51.336Z,5.63
2019-02-19T01:51:20.949Z,5.80
2019-02-19T01:53:50.590Z,5.92
2019-02-19T01:56:20.580Z,5.87
2019-02-19T01:58:50.223Z,5.94
2019-02-19T02:01:19.842Z,5.98
2019-02-19T02:03:49.486Z,6.20
2019-02-19T02:06:19.201Z,6.16
2019-02-19T02:08:48.842Z,6.18
2019-02-19T02:11:18.480Z,6.13
2019-02-19T02:13:51.283Z,6.11
2019-02-19T02:16:20.895Z,6.05
2019-02-19T02:18:50.522Z,6.09
2019-02-19T02:21:20.137Z,6.06
2019-02-19T02:23:49.783Z,5.97
2019-02-19T02:26:19.883Z,5.96
2019-02-19T02:28:49.593Z,6.37
2019-02-19T02:31:19.225Z,6.41
2019-02-19T02:33:48.932Z,6.56
2019-02-19T02:36:18.548Z,6.76
2019-02-19T02:38:48.238Z,6.86
2019-02-19T02:41:17.863Z,6.93
2019-02-19T02:43:47.581Z,6.97
2019-02-19T02:46:17.193Z,7.03
2019-02-19T02:48:46.909Z,7.02
2019-02-19T02:51:16.559Z,7.07
2019-02-19T02:53:46.239Z,7.15
2019-02-19T02:56:15.870Z,7.17
2019-02-19T02:58:45.485Z,7.08
2019-02-19T03:01:15.118Z,7.08
2019-02-19T03:03:44.785Z,7.07
2019-02-19T03:06:27.582Z,7.12
2019-02-19T03:08:57.191Z,7.08
2019-02-19T03:11:27.126Z,7.06
2019-02-19T03:13:56.983Z,7.09
2019-02-19T03:16:26.731Z,7.12
2019-02-19T03:18:56.761Z,7.13
2019-02-19T03:21:26.844Z,7.20
2019-02-19T03:23:56.704Z,7.13
2019-02-19T03:26:26.503Z,7.19
2019-02-19T03:28:56.193Z,7.13
2019-02-19T03:31:25.829Z,7.15
2019-02-19T03:33:56.290Z,7.21
2019-02-19T03:36:26.046Z,7.31
2019-02-19T03:38:55.719Z,7.24
2019-02-19T03:41:25.397Z,7.22
2019-02-19T03:43:55.083Z,7.33
2019-02-19T03:46:24.798Z,7.22
2019-02-19T03:48:54.509Z,7.24
2019-02-19T03:51:24.207Z,7.26
2019-02-19T03:53:53.889Z,7.22
2019-02-19T03:56:23.657Z,7.29
2019-02-19T03:58:53.384Z,7.26
2019-02-19T04:01:23.172Z,7.24
2019-02-19T04:03:52.900Z,7.24
2019-02-19T04:06:22.597Z,7.20
2019-02-19T04:08:52.306Z,7.26
2019-02-19T04:11:22.005Z,7.22
2019-02-19T04:13:51.761Z,7.12
2019-02-19T04:16:21.645Z,7.05
2019-02-19T04:18:51.350Z,7.00
2019-02-19T04:21:21.045Z,6.97
2019-02-19T04:23:50.730Z,6.90
2019-02-19T04:26:20.443Z,6.85
2019-02-19T04:28:50.074Z,6.83
2019-02-19T04:31:22.092Z,6.90
2019-02-19T04:33:51.786Z,6.77
2019-02-19T04:36:21.463Z,6.78
2019-02-19T04:38:51.163Z,6.74
2019-02-19T04:41:20.844Z,6.72
2019-02-19T04:43:50.556Z,6.72
2019-02-19T04:46:20.250Z,6.67
2019-02-19T04:48:49.960Z,6.68
2019-02-19T04:51:19.756Z,6.67
2019-02-19T04:53:49.469Z,6.66
2019-02-19T04:56:19.235Z,6.64
2019-02-19T04:58:48.911Z,6.63
2019-02-19T05:01:18.615Z,6.71
2019-02-19T05:03:49.215Z,6.64
2019-02-19T05:06:18.925Z,6.61
2019-02-19T05:08:48.614Z,6.63
2019-02-19T05:11:18.303Z,6.60
2019-02-19T05:13:49.604Z,6.58
2019-02-19T05:16:19.279Z,6.57
2019-02-19T05:18:48.984Z,6.55
2019-02-19T05:21:18.660Z,6.60
2019-02-19T05:23:48.355Z,6.60
2019-02-19T05:26:18.036Z,6.58
2019-02-19T05:28:47.735Z,6.61
2019-02-19T05:31:17.424Z,6.57
2019-02-19T05:33:47.131Z,6.54
2019-02-19T05:36:16.809Z,6.54
2019-02-19T05:38:46.527Z,6.58
2019-02-19T05:41:16.195Z,6.61
2019-02-19T05:43:45.903Z,6.61
2019-02-19T05:46:15.609Z,6.69
2019-02-19T05:48:45.336Z,6.76
2019-02-19T05:51:15.017Z,6.72
2019-02-19T05:53:44.973Z,6.73
2019-02-19T05:56:14.757Z,6.70
2019-02-19T05:58:44.476Z,6.71
2019-02-19T06:01:14.161Z,6.79
2019-02-19T06:03:43.855Z,6.78
2019-02-19T06:06:13.581Z,6.74
2019-02-19T06:08:43.294Z,6.76
2019-02-19T06:11:13.007Z,6.84
2019-02-19T06:13:42.733Z,6.84
2019-02-19T06:16:12.381Z,6.84
2019-02-19T06:18:42.047Z,6.89
2019-02-19T06:21:11.773Z,6.83
2019-02-19T06:23:41.485Z,6.87
2019-02-19T06:26:11.199Z,6.97
2019-02-19T06:28:40.895Z,6.93
2019-02-19T06:31:10.572Z,6.91
2019-02-19T06:33:40.327Z,6.92
2019-02-19T06:36:10.055Z,6.94
2019-02-19T06:38:39.806Z,6.94
2019-02-19T06:41:09.561Z,6.90
2019-02-19T06:43:39.209Z,6.90
2019-02-19T06:46:08.902Z,6.95
2019-02-19T06:48:38.587Z,6.90
2019-02-19T06:51:08.297Z,6.91
2019-02-19T06:53:37.988Z,6.89
2019-02-19T06:56:07.696Z,6.89
2019-02-19T06:58:37.395Z,6.85
2019-02-19T07:01:07.113Z,6.87
2019-02-19T07:03:56.737Z,6.84
2019-02-19T07:06:26.554Z,6.89
2019-02-19T07:08:56.231Z,6.91
2019-02-19T07:11:31.012Z,6.92
2019-02-19T07:14:00.724Z,6.90
2019-02-19T07:16:30.433Z,6.99
2019-02-19T07:19:00.131Z,7.00
2019-02-19T07:21:29.828Z,7.02
2019-02-19T07:24:04.532Z,6.97
2019-02-19T07:26:31.092Z,6.96
2019-02-19T07:29:01.823Z,7.00
2019-02-19T07:31:31.526Z,7.03
2019-02-19T07:34:01.180Z,7.06
2019-02-19T07:36:30.897Z,7.02
2019-02-19T07:39:00.666Z,7.10
2019-02-19T07:41:30.443Z,7.06
2019-02-19T07:44:00.180Z,7.10
2019-02-19T07:46:29.973Z,7.02
2019-02-19T07:49:03.910Z,7.04
2019-02-19T07:51:34.651Z,7.06
2019-02-19T07:54:04.413Z,7.08
2019-02-19T07:56:34.049Z,7.07
2019-02-19T07:59:03.665Z,7.01
2019-02-19T08:01:33.309Z,6.99
2019-02-19T08:04:03.008Z,6.95
2019-02-19T08:06:35.917Z,6.98
2019-02-19T08:09:08.593Z,7.02
2019-02-19T08:11:38.230Z,7.06
2019-02-19T08:14:07.864Z,7.03
2019-02-19T08:16:37.503Z,6.90
2019-02-19T08:19:07.152Z,6.88
2019-02-19T08:21:36.860Z,6.85
2019-02-19T08:24:06.492Z,6.93
2019-02-19T08:26:36.133Z,7.01
2019-02-19T08:29:13.460Z,7.06
2019-02-19T08:31:37.075Z,7.04
2019-02-19T08:34:06.727Z,7.12
2019-02-19T08:36:36.375Z,7.20
2019-02-19T08:39:06.224Z,7.24
2019-02-19T08:41:35.972Z,7.20
2019-02-19T08:44:05.661Z,7.19
2019-02-19T08:46:35.377Z,7.33
2019-02-19T08:49:06.109Z,7.34
2019-02-19T08:51:35.893Z,7.37
2019-02-19T08:54:05.597Z,7.37
2019-02-19T08:56:35.326Z,7.37
2019-02-19T08:59:05.153Z,7.43
2019-02-19T09:01:34.867Z,7.42
2019-02-19T09:04:04.604Z,7.41
2019-02-19T09:06:34.304Z,7.36
2019-02-19T09:09:05.270Z,7.38
2019-02-19T09:11:34.962Z,7.44
2019-02-19T09:14:04.683Z,7.47
2019-02-19T09:16:34.352Z,7.55
2019-02-19T09:19:04.095Z,7.57
2019-02-19T09:21:33.772Z,7.57
2019-02-19T09:24:09.239Z,7.57
2019-02-19T09:26:34.885Z,7.45
2019-02-19T09:29:06.641Z,7.44
2019-02-19T09:31:36.301Z,7.51
2019-02-19T09:34:05.995Z,7.57
2019-02-19T09:36:35.717Z,7.55
2019-02-19T09:39:05.827Z,7.69
2019-02-19T09:41:35.527Z,7.73
2019-02-19T09:44:05.216Z,7.71
2019-02-19T09:46:34.941Z,7.64
2019-02-19T09:49:04.643Z,7.64
2019-02-19T09:51:34.324Z,7.60
2019-02-19T09:54:04.134Z,7.59
2019-02-19T09:56:33.806Z,7.57
2019-02-19T09:59:03.505Z,7.53
2019-02-19T10:01:33.223Z,7.49
2019-02-19T10:04:02.943Z,7.49
2019-02-19T10:06:32.644Z,7.42
2019-02-19T10:09:02.381Z,7.41
2019-02-19T10:11:32.076Z,7.37
2019-02-19T10:14:01.789Z,7.39
2019-02-19T10:16:31.472Z,7.41
2019-02-19T10:19:01.188Z,7.42
2019-02-19T10:21:30.886Z,7.40
2019-02-19T10:24:00.653Z,7.44
2019-02-19T10:26:30.336Z,7.43
2019-02-19T10:29:00.009Z,7.43
2019-02-19T10:31:29.712Z,7.43
2019-02-19T10:33:59.491Z,7.44
2019-02-19T10:36:29.172Z,7.44
2019-02-19T10:38:59.062Z,7.31
2019-02-19T10:41:28.742Z,7.27
2019-02-19T10:43:58.460Z,7.26
2019-02-19T10:46:28.142Z,7.27
2019-02-19T10:48:57.861Z,7.25
2019-02-19T10:51:27.604Z,7.25
2019-02-19T10:53:57.348Z,7.26
2019-02-19T10:56:27.045Z,7.21
2019-02-19T10:58:56.782Z,7.22
2019-02-19T11:01:26.538Z,7.20
2019-02-19T11:03:56.551Z,7.15
2019-02-19T11:06:39.405Z,7.16
2019-02-19T11:12:13.396Z,7.14
2019-02-19T11:14:44.079Z,7.12
2019-02-19T11:17:23.764Z,7.04
2019-02-19T11:20:01.091Z,7.08
2019-02-19T11:22:31.311Z,7.05
2019-02-19T11:38:57.988Z,6.97
2019-02-19T11:41:29.430Z,6.92
2019-02-19T11:44:00.969Z,6.92
2019-02-19T11:46:32.407Z,6.95
2019-02-19T11:49:06.237Z,6.92
2019-02-19T11:51:36.750Z,6.92
2019-02-19T11:54:07.360Z,6.91
2019-02-19T11:56:40.790Z,6.98
2019-02-19T11:59:11.776Z,6.95
2019-02-19T12:01:46.027Z,7.05
2019-02-19T12:06:59.232Z,7.14
2019-02-19T12:09:36.361Z,7.19
2019-02-19T12:12:07.244Z,7.30
2019-02-19T12:14:41.039Z,7.30
2019-02-19T12:17:16.908Z,7.33
2019-02-19T12:19:49.758Z,7.37
2019-02-19T12:22:25.877Z,7.34
2019-02-19T12:24:58.916Z,7.26
2019-02-19T12:27:28.988Z,7.31
2019-02-19T12:30:10.990Z,7.28
2019-02-19T12:32:52.746Z,7.26
2019-02-19T12:35:29.549Z,7.22
2019-02-19T12:38:04.392Z,7.18
2019-02-19T12:40:38.009Z,7.22
2019-02-19T12:43:15.113Z,7.23
2019-02-19T12:45:54.001Z,7.29
2019-02-19T12:48:24.609Z,7.39
2019-02-19T12:50:58.050Z,7.46
2019-02-19T12:53:34.389Z,7.53
2019-02-19T12:56:08.647Z,7.56
2019-02-19T12:58:40.770Z,7.60
2019-02-19T13:01:16.012Z,7.65
2019-02-19T13:03:46.311Z,7.59
2019-02-19T13:06:19.626Z,7.57
2019-02-19T13:08:50.487Z,7.62
2019-02-19T13:11:24.292Z,7.72
2019-02-19T13:13:54.330Z,7.74
2019-02-19T13:19:15.907Z,7.86
2019-02-19T13:21:57.070Z,7.86
2019-02-19T13:24:45.410Z,7.92
2019-02-19T13:27:21.967Z,7.93
2019-02-19T13:29:59.265Z,7.94
2019-02-19T13:32:29.309Z,7.92
2019-02-19T13:35:00.405Z,8.00
2019-02-19T13:37:31.698Z,8.01
2019-02-19T13:40:02.432Z,8.00
2019-02-19T13:42:35.683Z,7.99
2019-02-19T13:45:13.558Z,7.98
2019-02-19T13:50:50.565Z,7.92
2019-02-19T13:53:24.964Z,8.01
2019-02-19T13:55:57.694Z,8.01
2019-02-19T13:58:28.226Z,8.20
2019-02-19T14:01:05.147Z,8.19
2019-02-19T14:03:35.692Z,8.08
2019-02-19T14:06:26.077Z,8.01
2019-02-19T14:08:56.742Z,7.93
2019-02-19T14:11:32.017Z,7.93
2019-02-19T14:14:07.038Z,7.88
2019-02-19T14:16:38.984Z,7.91
2019-02-19T14:19:21.683Z,7.89
2019-02-19T14:22:10.587Z,7.91
2019-02-19T14:24:59.605Z,8.04
2019-02-19T15:10:55.356Z,7.91
2019-02-19T15:13:39.577Z,7.92
2019-02-19T15:16:13.858Z,7.89
2019-02-19T15:18:50.919Z,7.84
2019-02-19T15:21:31.295Z,7.86
2019-02-19T15:24:05.665Z,7.81
2019-02-19T15:26:37.117Z,7.70
2019-02-19T15:29:17.481Z,7.63
2019-02-19T15:31:54.696Z,7.62
2019-02-19T15:34:42.465Z,7.65
2019-02-19T15:37:16.305Z,7.58
2019-02-19T15:39:47.608Z,7.54
2019-02-19T15:42:35.187Z,7.57
2019-02-19T15:45:11.602Z,7.53
2019-02-19T15:47:59.220Z,7.57
2019-02-19T15:50:46.851Z,7.52
2019-02-19T15:53:20.947Z,7.52
2019-02-19T15:56:08.341Z,7.52
2019-02-19T15:58:45.166Z,7.49
2019-02-19T16:01:19.416Z,7.43
2019-02-19T16:03:51.439Z,7.43
2019-02-19T16:06:22.686Z,7.43
2019-02-19T16:08:53.984Z,7.41
2019-02-19T16:11:25.313Z,7.37
2019-02-19T16:14:00.029Z,7.32
2019-02-19T16:16:40.749Z,7.30
2019-02-19T16:19:15.648Z,7.22
2019-02-19T16:21:46.934Z,7.24
2019-02-19T16:24:21.825Z,7.13
2019-02-19T16:26:53.331Z,7.11
2019-02-19T16:29:27.816Z,7.18
2019-02-19T16:32:07.962Z,7.12
2019-02-19T16:34:48.796Z,7.13
2019-02-19T16:37:20.075Z,7.20
2019-02-19T16:40:06.713Z,7.20
2019-02-19T16:42:40.896Z,7.28
2019-02-19T16:45:24.723Z,7.23
2019-02-19T16:47:59.978Z,7.20
2019-02-19T16:50:31.369Z,7.21
2019-02-19T16:53:17.892Z,7.21
2019-02-19T16:55:49.295Z,7.28
2019-02-19T16:58:29.646Z,7.15
2019-02-19T17:01:01.184Z,7.06
2019-02-19T17:03:38.741Z,6.89
2019-02-19T17:06:26.245Z,6.82
2019-02-19T17:09:03.797Z,6.74
2019-02-19T17:11:38.169Z,6.64
2019-02-19T17:14:33.215Z,6.59
2019-02-19T17:17:16.261Z,6.56
2019-02-19T17:20:03.087Z,6.51
2019-02-19T17:22:52.759Z,6.43
2019-02-19T17:25:27.243Z,6.39
2019-02-19T17:27:58.949Z,6.31
2019-02-19T17:30:34.017Z,6.27
2019-02-19T17:33:08.924Z,6.31
2019-02-19T17:35:56.227Z,6.33
2019-02-19T17:38:37.154Z,6.33
2019-02-19T17:41:21.021Z,6.35
2019-02-19T17:43:59.296Z,6.40
2019-02-19T17:46:39.709Z,6.42
2019-02-19T17:49:13.471Z,6.37
2019-02-19T17:51:45.899Z,6.29
2019-02-19T17:54:29.739Z,6.30
2019-02-19T17:57:07.274Z,6.33
2019-02-19T17:59:43.062Z,6.40
2019-02-19T18:02:24.001Z,6.47
2019-02-19T18:04:55.536Z,6.48
2019-02-19T18:07:33.044Z,6.55
2019-02-19T18:10:07.571Z,6.58
2019-02-19T18:12:45.020Z,6.72
2019-02-19T18:15:22.288Z,6.78
2019-02-19T18:17:56.629Z,6.76
2019-02-19T18:20:26.247Z,6.76
2019-02-19T18:22:56.474Z,6.71
2019-02-19T18:25:27.099Z,6.73
2019-02-19T18:27:56.974Z,6.69
2019-02-19T18:30:27.568Z,6.71
2019-02-19T18:32:57.618Z,6.81
2019-02-19T18:35:27.234Z,6.79
2019-02-19T18:37:56.902Z,6.78
2019-02-19T18:40:28.790Z,6.79
2019-02-19T18:42:58.423Z,6.77
2019-02-19T18:45:28.114Z,6.76
2019-02-19T18:47:58.472Z,6.81
2019-02-19T18:50:28.253Z,6.74
2019-02-19T18:52:58.023Z,6.70
2019-02-19T18:55:27.978Z,6.70
2019-02-19T18:57:57.926Z,6.75
2019-02-19T19:00:28.181Z,6.73
2019-02-19T19:02:57.887Z,6.73
2019-02-19T19:05:29.660Z,6.73
2019-02-19T19:07:59.319Z,6.73
2019-02-19T19:10:29.032Z,6.72
2019-02-19T19:12:58.830Z,6.77
2019-02-19T19:15:28.676Z,6.75
2019-02-19T19:17:58.383Z,6.71
2019-02-19T19:20:28.192Z,6.74
2019-02-19T19:22:58.071Z,6.76
2019-02-19T19:25:27.919Z,6.80
2019-02-19T19:27:57.561Z,6.79
2019-02-19T19:30:29.468Z,6.76
2019-02-19T19:32:59.473Z,6.74
2019-02-19T19:35:29.312Z,6.72
2019-02-19T19:37:59.074Z,6.76
2019-02-19T19:40:30.724Z,6.76
2019-02-19T19:43:00.527Z,6.73
2019-02-19T19:45:30.149Z,6.73
2019-02-19T19:48:00.154Z,6.75
2019-02-19T19:50:29.813Z,6.69
2019-02-19T19:53:00.980Z,6.60
2019-02-19T19:55:30.664Z,6.66
2019-02-19T19:58:00.369Z,6.65
2019-02-19T20:00:30.337Z,6.71
2019-02-19T20:03:00.003Z,6.70
2019-02-19T20:05:29.658Z,6.69
2019-02-19T20:07:59.468Z,6.65
2019-02-19T20:10:29.418Z,6.72
2019-02-19T20:12:59.131Z,6.71
2019-02-19T20:15:28.846Z,6.67
2019-02-19T20:17:58.484Z,6.66
2019-02-19T20:20:30.135Z,6.66
2019-02-19T20:23:00.101Z,6.66
2019-02-19T20:25:30.505Z,6.74
2019-02-19T20:28:00.970Z,6.70
2019-02-19T20:30:30.704Z,6.71
2019-02-19T20:33:00.429Z,6.69
2019-02-19T20:35:30.487Z,6.63
2019-02-19T20:38:00.255Z,6.70
2019-02-19T20:40:29.956Z,6.66
2019-02-19T20:42:59.650Z,6.68
2019-02-19T20:45:29.375Z,6.72
2019-02-19T20:47:59.884Z,6.77
2019-02-19T20:50:29.666Z,6.74
2019-02-19T20:52:59.420Z,6.81
2019-02-19T20:55:36.715Z,6.81
2019-02-19T20:58:00.486Z,6.80
2019-02-19T21:00:30.149Z,6.71
2019-02-19T21:02:59.947Z,6.81
2019-02-19T21:05:29.810Z,6.79
2019-02-19T21:08:01.244Z,6.78
2019-02-19T21:10:31.190Z,6.73
2019-02-19T21:13:00.993Z,6.81
2019-02-19T21:15:30.736Z,6.82
2019-02-19T21:18:00.573Z,6.79
2019-02-19T21:20:30.253Z,6.82
2019-02-19T21:23:00.918Z,6.82
2019-02-19T21:25:31.217Z,6.86
2019-02-19T21:28:00.958Z,6.78
2019-02-19T21:30:30.579Z,6.77
2019-02-19T21:33:00.296Z,6.82
2019-02-19T21:35:29.998Z,6.92
2019-02-19T21:37:59.617Z,6.88
2019-02-19T21:40:29.389Z,6.83
2019-02-19T21:42:59.011Z,6.85
2019-02-19T21:45:30.145Z,6.83
2019-02-19T21:47:59.808Z,6.89
2019-02-19T21:50:29.479Z,6.81
2019-02-19T21:53:00.421Z,6.79
2019-02-19T21:55:30.248Z,6.78
2019-02-19T21:58:00.032Z,6.78
2019-02-19T22:00:29.764Z,6.82
2019-02-19T22:02:59.424Z,6.78
2019-02-19T22:05:29.866Z,6.78
2019-02-19T22:08:01.258Z,6.82
2019-02-19T22:10:30.975Z,6.78
2019-02-19T22:13:00.622Z,6.75
2019-02-19T22:15:30.426Z,6.74
2019-02-19T22:18:00.030Z,6.74
2019-02-19T22:20:46.644Z,6.79
2019-02-19T22:23:16.262Z,6.74
2019-02-19T22:25:46.242Z,6.74
2019-02-19T22:28:15.949Z,6.77
2019-02-19T22:30:45.673Z,6.75
2019-02-19T22:33:15.297Z,6.74
2019-02-19T22:35:45.008Z,6.73
2019-02-19T22:38:14.631Z,6.77
2019-02-19T22:40:44.338Z,6.76
2019-02-19T22:43:14.148Z,6.74
2019-02-19T22:45:43.808Z,6.73
2019-02-19T22:48:13.436Z,6.77
2019-02-19T22:50:43.073Z,6.73
2019-02-19T22:53:30.880Z,6.75
2019-02-19T22:56:02.193Z,6.76
2019-02-19T22:58:32.051Z,6.78
2019-02-19T23:01:09.355Z,6.74
2019-02-19T23:03:39.302Z,6.72
2019-02-19T23:06:09.017Z,6.78
2019-02-19T23:08:38.688Z,6.79
2019-02-19T23:11:08.672Z,6.78
2019-02-19T23:13:38.628Z,6.80
2019-02-19T23:16:08.370Z,6.77
2019-02-19T23:18:37.989Z,6.77
2019-02-19T23:21:07.660Z,6.87
2019-02-19T23:23:37.319Z,6.83
2019-02-19T23:26:07.018Z,6.80
2019-02-19T23:28:36.768Z,6.78
2019-02-19T23:31:06.550Z,6.90
2019-02-19T23:33:36.318Z,6.91
2019-02-19T23:36:07.654Z,6.95
2019-02-19T23:38:37.390Z,6.94
2019-02-19T23:41:07.251Z,6.94
2019-02-19T23:43:36.898Z,6.91
2019-02-19T23:46:06.502Z,6.91
2019-02-19T23:48:36.280Z,6.89
2019-02-19T23:51:05.900Z,6.79
2019-02-19T23:53:35.549Z,6.83
2019-02-19T23:56:05.196Z,6.82
2019-02-19T23:58:34.932Z,6.77
